Amunt
Inicio > meteoXarxa
Fes-te'n soci

METEOXARXA

Portell de Morella
Ubicació
Comarca els Ports
Altitud (msnm) 1074
Posició geogràfica 40° 31' 57.00" N, 00° 15' 45.00" W
Model Davis Vantage Pro 2 Calefactada
Presa de dades
Font de les dades AVAMET Portell (+dades online)
Estadístiques. Resum
Data Temperatura (ºC) Humitat (%) Pressió (hPa) Vent (km/h) Precipit. (mm)
Mínima Mitjana Màxima Mínima Mitjana Màxima Mínima Mitjana Màxima Predom. Mitjana Ràfega màxima Total Dies de pluja
Mínima Mitjana Màxima Mínima Mitjana Màxima
Últimes dades diàries
24-03-2017 -0,7     2,8     6,6 WNW 4,5 25,7 0,3  
23-03-2017 1,6     4,6     8,1 WNW 6,9 37,0 0,0  
22-03-2017 3,9     8,2     13,8 SE 6,3 41,8 0,0  
21-03-2017 4,8     10,2     16,3 WNW 3,7 25,7 0,0  
20-03-2017 5,0     12,3     20,4 NE 1,8 19,3 0,0  
19-03-2017 5,4     12,2     20,0 N 1,8 17,7 0,0  
18-03-2017 1,8     10,9     20,3 WNW 2,7 20,9 0,0  
17-03-2017 2,9     9,4     16,8 SE 3,1 27,4 0,0  
16-03-2017 2,7     8,7     15,2 SE 4,2 30,6 0,0  
15-03-2017 3,1     8,7     14,3 ESE 2,9 24,1 0,0  
14-03-2017 4,7     8,5     14,8 WNW 2,3 17,7 0,0  
13-03-2017 0,9     3,5     6,3 WNW 6,4 33,8 27,7  
12-03-2017 3,5     10,0     16,8 WNW 15,6 49,9 4,1  
11-03-2017 10,8     17,3     23,6 WNW 4,3 20,9 0,0  
10-03-2017 11,8     18,1     24,6 WNW 8,2 37,0 0,0  
09-03-2017 8,0     16,2     24,7 WNW 4,2 30,6 0,0  
08-03-2017 7,9     12,8     18,7 WNW 16,1 61,2 0,0  
07-03-2017 7,4     11,1     15,8 WNW 24,1 72,4 0,0  
06-03-2017 8,7     11,6     15,4 WNW 21,9 61,2 0,0  
05-03-2017 2,4     8,4     12,9 WNW 10,6 49,9 0,0  
04-03-2017 1,7     4,2     8,0 WNW 22,0 86,9 0,3  
03-03-2017 2,2     7,6     11,2 SE 12,9 53,1 7,1  
02-03-2017 4,2     9,7     16,1 SE 5,3 29,0 0,0  
01-03-2017 1,3     7,9     15,3 SE 4,7 25,7 0,0  
28-02-2017 3,6     8,1     12,8 WNW 11,6 59,5 0,0  
27-02-2017 2,8     9,3     16,8 WNW 3,7 30,6 0,0  
26-02-2017 2,4     8,7     16,4 ESE 1,8 17,7 0,0  
25-02-2017 -1,2     6,1     15,6 WNW 3,5 27,4 0,0  
24-02-2017 2,8     6,6     9,8 WNW 19,3 48,3 2,8  
23-02-2017 7,9     11,9     15,6 SE 3,9 33,8 0,0  
22-02-2017 2,8     9,2     17,1 SSE 1,9 20,9 0,0  
21-02-2017 -0,7     6,4     15,7 SW 1,8 19,3 0,0  
Dades del mes en curs (actualitzades fins l'últim dia disponible)
03/2017 -0,7 4,4 11,8 9,8 6,3 15,7 24,7   8,2 86,9 39,5  
Últimes dades mensuals
02/2017 -1,2 2,6 7,9 6,9 4,5 12,1 17,1 9,2 91,7 26,7 8
01/2017 -6,9 0,1 6,5 3,7 -1,4 7,8 16,8 13,1 83,7 51,7 7
12/2016 -0,7 2,5 7,8 6,1 3,2 11,0 18,0 3,8 53,1 66,7 6
11/2016 -1,4 4,6 11,8 8,2 6,9 12,5 21,6 7,2 90,1 87,6 12
10/2016 3,5 9,3 13,4 13,8 12,0 19,3 25,4 3,4 41,8 32,8 6
09/2016 7,9 13,3 22,4 17,7 16,1 23,5 33,6 6,0 56,3 26,9 5
08/2016 7,9 14,4 19,9 20,8 22,2 27,6 31,4 4,5 57,9 14,7 4
07/2016 6,7 15,0 21,2 21,2 21,2 27,7 33,6 5,3 54,7 22,2 5
06/2016 7,2 12,4 17,8 18,0 16,2 23,9 29,8 6,5 57,9 102,7 9
05/2016 -0,2 7,8 12,9 12,8 9,6 18,2 25,7 8,8 61,2 27,2 7
04/2016 -0,6 4,6 9,7 9,2 8,0 14,1 19,6 8,7 62,8 44,9 10
03/2016 -3,4 2,8 9,1 6,3 3,7 10,5 21,6 12,1 75,6 23,9 10
02/2016 -7,8 2,0 10,3 6,3 3,4 11,2 16,7 13,3 111,0 20,2 9
Dades de l'any en curs (actualitzades fins l'últim dia disponible)
2017 -6,9 2,2 11,8 6,5 -1,4 11,5 24,7   10,4 91,7 117,9  
Últimes dades anuals
2016 -7,8 7,7 22,4 12,3 3,2 17,6 33,6 7,4 111,0 478,7 91